createdAt,value
2022-09-12T00:01:51.808Z,14.22
2022-09-12T00:04:18.689Z,14.16
2022-09-12T00:06:45.519Z,14.14
2022-09-12T00:09:14.466Z,14.14
2022-09-12T00:11:45.229Z,14.17
2022-09-12T00:14:16.123Z,14.19
2022-09-12T00:16:43.471Z,14.23
2022-09-12T00:19:11.962Z,14.21
2022-09-12T00:21:40.230Z,14.15
2022-09-12T00:24:08.029Z,14.12
2022-09-12T00:26:34.836Z,14.12
2022-09-12T00:29:01.656Z,14.06
2022-09-12T00:31:28.582Z,14.11
2022-09-12T00:33:58.430Z,14.16
2022-09-12T00:36:26.420Z,14.20
2022-09-12T00:38:54.577Z,14.13
2022-09-12T00:41:29.927Z,14.05
2022-09-12T00:44:00.465Z,13.99
2022-09-12T00:47:06.187Z,13.82
2022-09-12T00:49:40.579Z,13.76
2022-09-12T00:52:23.954Z,13.59
2022-09-12T00:55:08.088Z,13.46
2022-09-12T00:57:50.504Z,13.51
2022-09-12T01:00:21.006Z,13.47
2022-09-12T01:02:54.621Z,13.48
2022-09-12T01:05:23.807Z,13.49
2022-09-12T01:07:51.690Z,13.51
2022-09-12T01:10:20.076Z,13.53
2022-09-12T01:12:47.977Z,13.56
2022-09-12T01:15:14.773Z,13.60
2022-09-12T01:18:11.829Z,13.63
2022-09-12T01:21:01.229Z,13.55
2022-09-12T01:24:35.792Z,13.51
2022-09-12T01:27:44.369Z,13.51
2022-09-12T01:30:21.274Z,13.50
2022-09-12T01:32:54.918Z,13.48
2022-09-12T01:36:09.501Z,13.47
2022-09-12T01:38:48.399Z,13.47
2022-09-12T01:41:28.975Z,13.38
2022-09-12T01:44:50.754Z,13.21
2022-09-12T01:47:31.429Z,13.15
2022-09-12T01:50:06.971Z,13.10
2022-09-12T01:52:43.018Z,13.05
2022-09-12T01:55:20.927Z,13.00
2022-09-12T01:58:06.062Z,12.98
2022-09-12T02:00:48.153Z,12.97
2022-09-12T02:03:20.694Z,12.98
2022-09-12T02:05:59.817Z,12.96
2022-09-12T02:08:34.930Z,12.96
2022-09-12T02:11:09.677Z,12.91
2022-09-12T02:13:49.423Z,12.88
2022-09-12T02:16:32.051Z,12.82
2022-09-12T02:19:11.087Z,12.76
2022-09-12T02:21:45.254Z,12.76
2022-09-12T02:24:14.968Z,12.75
2022-09-12T02:26:49.563Z,12.78
2022-09-12T02:29:16.671Z,12.73
2022-09-12T02:31:55.358Z,12.70
2022-09-12T02:34:49.417Z,12.65
2022-09-12T02:37:41.991Z,12.61
2022-09-12T02:40:09.790Z,12.61
2022-09-12T02:42:37.543Z,12.60
2022-09-12T02:45:05.262Z,12.49
2022-09-12T02:47:38.935Z,12.45
2022-09-12T02:50:08.058Z,12.42
2022-09-12T02:52:36.315Z,12.40
2022-09-12T02:55:06.544Z,12.32
2022-09-12T02:57:33.650Z,12.26
2022-09-12T03:00:01.990Z,12.19
2022-09-12T03:02:51.651Z,12.17
2022-09-12T03:05:35.635Z,12.14
2022-09-12T03:08:44.283Z,12.12
2022-09-12T03:12:05.978Z,12.08
2022-09-12T03:14:45.157Z,12.04
2022-09-12T03:17:42.231Z,12.05
2022-09-12T03:20:45.845Z,12.10
2022-09-12T03:23:25.049Z,12.15
2022-09-12T03:26:04.312Z,12.18
2022-09-12T03:28:33.250Z,12.22
2022-09-12T03:31:00.124Z,12.28
2022-09-12T03:33:27.042Z,12.25
2022-09-12T03:35:55.007Z,12.25
2022-09-12T03:38:22.062Z,12.62
2022-09-12T03:40:54.047Z,12.68
2022-09-12T03:43:21.724Z,12.76
2022-09-12T03:45:54.356Z,12.83
2022-09-12T03:48:21.141Z,12.87
2022-09-12T03:50:47.907Z,12.96
2022-09-12T03:53:17.215Z,13.01
2022-09-12T03:55:44.714Z,12.95
2022-09-12T03:58:11.510Z,12.76
2022-09-12T04:00:39.520Z,12.74
2022-09-12T04:03:06.273Z,12.67
2022-09-12T04:05:33.141Z,12.59
2022-09-12T04:07:59.900Z,12.58
2022-09-12T04:10:26.655Z,12.56
2022-09-12T04:12:53.441Z,12.63
2022-09-12T04:15:20.279Z,12.65
2022-09-12T04:17:47.034Z,12.66
2022-09-12T04:20:13.794Z,12.68
2022-09-12T04:22:40.561Z,12.69
2022-09-12T04:25:09.459Z,12.69
2022-09-12T04:27:36.415Z,12.63
2022-09-12T04:30:04.486Z,12.57
2022-09-12T04:32:31.606Z,12.45
2022-09-12T04:34:58.561Z,12.44
2022-09-12T04:37:25.357Z,12.33
2022-09-12T04:39:55.980Z,12.31
2022-09-12T04:42:22.790Z,12.31
2022-09-12T04:44:49.756Z,12.29
2022-09-12T04:47:16.913Z,12.28
2022-09-12T04:49:43.718Z,12.24
2022-09-12T04:52:10.475Z,12.17
2022-09-12T04:54:37.868Z,12.17
2022-09-12T04:57:04.742Z,12.16
2022-09-12T04:59:31.534Z,12.16
2022-09-12T05:01:58.662Z,12.18
2022-09-12T05:04:25.451Z,12.23
2022-09-12T05:06:52.210Z,12.09
2022-09-12T05:09:18.960Z,12.15
2022-09-12T05:12:03.683Z,12.22
2022-09-12T05:14:32.507Z,12.33
2022-09-12T05:17:01.647Z,12.28
2022-09-12T05:19:30.403Z,12.29
2022-09-12T05:21:57.376Z,12.23
2022-09-12T05:24:24.683Z,12.18
2022-09-12T05:26:51.571Z,12.29
2022-09-12T05:29:18.912Z,12.41
2022-09-12T05:31:45.777Z,12.55
2022-09-12T05:34:12.671Z,12.58
2022-09-12T05:36:39.612Z,12.70
2022-09-12T05:39:06.412Z,12.78
2022-09-12T05:41:34.803Z,12.91
2022-09-12T05:44:06.762Z,13.04
2022-09-12T05:46:41.923Z,13.18
2022-09-12T05:49:12.126Z,13.28
2022-09-12T05:51:45.080Z,13.43
2022-09-12T05:54:17.032Z,13.52
2022-09-12T05:56:44.968Z,13.73
2022-09-12T05:59:19.043Z,13.93
2022-09-12T06:01:46.247Z,14.18
2022-09-12T06:04:13.195Z,14.36
2022-09-12T06:06:47.212Z,14.60
2022-09-12T06:09:16.393Z,14.77
2022-09-12T06:11:44.489Z,14.92
2022-09-12T06:14:14.993Z,15.20
2022-09-12T06:16:42.094Z,15.45
2022-09-12T06:19:18.815Z,15.77
2022-09-12T06:21:47.501Z,15.97
2022-09-12T06:24:14.289Z,16.28
2022-09-12T06:26:41.397Z,16.45
2022-09-12T06:29:08.455Z,16.55
2022-09-12T06:31:38.183Z,16.75
2022-09-12T06:34:11.931Z,16.99
2022-09-12T06:36:47.859Z,16.95
2022-09-12T06:39:23.157Z,16.74
2022-09-12T06:41:52.111Z,17.08
2022-09-12T06:44:21.675Z,17.34
2022-09-12T06:46:49.078Z,17.61
2022-09-12T06:49:17.699Z,18.01
2022-09-12T06:51:44.760Z,18.25
2022-09-12T06:54:17.160Z,18.58
2022-09-12T06:56:44.841Z,18.69
2022-09-12T06:59:11.797Z,18.98
2022-09-12T07:01:39.911Z,19.19
2022-09-12T07:04:07.119Z,18.79
2022-09-12T07:06:40.994Z,19.12
2022-09-12T07:09:12.138Z,19.38
2022-09-12T07:11:41.304Z,19.54
2022-09-12T07:14:12.014Z,19.53
2022-09-12T07:16:38.874Z,19.99
2022-09-12T07:19:08.047Z,20.33
2022-09-12T07:21:39.713Z,20.52
2022-09-12T07:24:09.054Z,20.53
2022-09-12T07:26:35.926Z,20.80
2022-09-12T07:31:49.736Z,20.72
2022-09-12T07:34:17.528Z,20.93
2022-09-12T07:36:44.307Z,20.57
2022-09-12T07:39:11.197Z,20.76
2022-09-12T07:41:38.025Z,21.29
2022-09-12T07:44:06.947Z,21.19
2022-09-12T07:46:34.839Z,20.88
2022-09-12T07:49:02.326Z,21.23
2022-09-12T07:51:30.799Z,21.46
2022-09-12T07:53:58.335Z,21.73
2022-09-12T07:56:30.147Z,21.96
2022-09-12T07:58:58.815Z,21.62
2022-09-12T08:01:25.697Z,22.06
2022-09-12T08:03:59.651Z,22.48
2022-09-12T08:06:30.207Z,22.79
2022-09-12T08:08:58.395Z,23.15
2022-09-12T08:11:28.047Z,23.51
2022-09-12T08:13:57.160Z,23.55
2022-09-12T08:16:28.002Z,23.36
2022-09-12T08:18:55.090Z,23.72
2022-09-12T08:21:25.362Z,23.72
2022-09-12T08:24:01.898Z,23.90
2022-09-12T08:26:29.618Z,24.26
2022-09-12T08:28:56.662Z,24.29
2022-09-12T08:31:26.695Z,25.01
2022-09-12T08:33:56.684Z,24.94
2022-09-12T08:36:26.587Z,24.91
2022-09-12T08:39:06.641Z,24.44
2022-09-12T08:41:40.645Z,24.58
2022-09-12T08:44:16.364Z,25.21
2022-09-12T08:47:17.149Z,24.13
2022-09-12T08:50:09.711Z,24.88
2022-09-12T08:53:03.296Z,25.14
2022-09-12T08:55:38.374Z,25.28
2022-09-12T08:58:23.563Z,25.45
2022-09-12T09:01:11.200Z,25.54
2022-09-12T09:04:05.478Z,25.15
2022-09-12T09:07:22.722Z,25.71
2022-09-12T09:10:23.179Z,24.97
2022-09-12T09:13:45.502Z,24.82
2022-09-12T09:16:31.152Z,24.84
2022-09-12T09:19:05.262Z,24.96
2022-09-12T09:21:51.181Z,24.94
2022-09-12T09:24:23.827Z,25.42
2022-09-12T09:26:59.018Z,25.02
2022-09-12T09:29:44.515Z,25.03
2022-09-12T09:32:21.906Z,24.73
2022-09-12T09:34:48.812Z,25.18
2022-09-12T09:37:32.648Z,25.16
2022-09-12T09:40:24.619Z,25.26
2022-09-12T09:43:18.462Z,25.66
2022-09-12T09:45:47.817Z,25.95
2022-09-12T09:48:31.594Z,26.01
2022-09-12T09:51:01.767Z,25.79
2022-09-12T09:53:40.522Z,25.50
2022-09-12T09:56:39.932Z,26.11
2022-09-12T09:59:16.242Z,25.91
2022-09-12T10:02:03.881Z,26.58
2022-09-12T10:04:38.080Z,25.84
2022-09-12T10:07:20.082Z,26.49
2022-09-12T10:10:15.297Z,25.89
2022-09-12T10:12:42.651Z,26.03
2022-09-12T10:15:30.391Z,26.28
2022-09-12T10:17:58.756Z,25.65
2022-09-12T10:20:43.296Z,25.76
2022-09-12T10:23:19.205Z,25.03
2022-09-12T10:26:10.480Z,25.84
2022-09-12T10:28:44.718Z,26.03
2022-09-12T10:31:17.126Z,26.21
2022-09-12T10:33:53.668Z,25.93
2022-09-12T10:36:21.927Z,26.22
2022-09-12T10:38:54.951Z,26.33
2022-09-12T10:41:22.012Z,26.56
2022-09-12T10:43:50.171Z,26.74
2022-09-12T10:46:19.598Z,27.33
2022-09-12T10:48:50.639Z,27.06
2022-09-12T10:51:29.318Z,27.82
2022-09-12T10:54:05.480Z,27.53
2022-09-12T10:56:39.587Z,27.56
2022-09-12T10:59:38.611Z,27.27
2022-09-12T11:02:28.293Z,27.55
2022-09-12T11:05:24.256Z,27.93
2022-09-12T11:08:01.590Z,27.99
2022-09-12T11:11:09.783Z,27.99
2022-09-12T11:13:56.041Z,27.76
2022-09-12T11:16:44.094Z,28.01
2022-09-12T11:19:51.001Z,28.16
2022-09-12T11:22:45.627Z,28.02
2022-09-12T11:25:31.737Z,27.80
2022-09-12T11:28:19.982Z,28.04
2022-09-12T11:31:16.504Z,28.56
2022-09-12T11:33:50.615Z,28.21
2022-09-12T11:37:15.101Z,28.34
2022-09-12T11:39:53.407Z,28.12
2022-09-12T11:42:32.078Z,29.05
2022-09-12T11:45:15.908Z,29.03
2022-09-12T11:47:49.541Z,29.00
2022-09-12T11:50:26.560Z,28.86
2022-09-12T11:53:06.571Z,29.10
2022-09-12T11:56:12.599Z,28.94
2022-09-12T11:58:42.834Z,29.22
2022-09-12T12:01:20.975Z,29.88
2022-09-12T12:03:48.865Z,30.40
2022-09-12T12:06:32.962Z,30.38
2022-09-12T12:09:00.034Z,30.97
2022-09-12T12:11:47.127Z,31.19
2022-09-12T12:14:26.590Z,31.51
2022-09-12T12:16:53.455Z,31.64
2022-09-12T12:19:33.882Z,32.35
2022-09-12T12:22:23.192Z,32.44
2022-09-12T12:25:02.142Z,31.94
2022-09-12T12:28:01.578Z,32.86
2022-09-12T12:30:31.238Z,32.85
2022-09-12T12:33:12.852Z,32.96
2022-09-12T12:35:46.196Z,33.23
2022-09-12T12:38:36.876Z,34.16
2022-09-12T12:41:18.862Z,34.85
2022-09-12T12:43:53.605Z,34.75
2022-09-12T12:46:22.808Z,34.63
2022-09-12T12:49:18.871Z,35.43
2022-09-12T12:51:56.643Z,36.34
2022-09-12T12:54:41.398Z,35.96
2022-09-12T12:57:24.727Z,36.01
2022-09-12T13:00:28.227Z,35.25
2022-09-12T13:03:06.746Z,36.48
2022-09-12T13:05:52.827Z,36.31
2022-09-12T13:08:19.833Z,35.72
2022-09-12T13:11:00.295Z,35.76
2022-09-12T13:14:09.320Z,35.84
2022-09-12T13:16:39.829Z,35.48
2022-09-12T13:19:29.958Z,34.70
2022-09-12T13:21:59.456Z,34.65
2022-09-12T13:24:26.190Z,35.03
2022-09-12T13:26:53.491Z,36.51
2022-09-12T13:29:25.957Z,37.21
2022-09-12T13:32:03.062Z,37.68
2022-09-12T13:34:34.398Z,38.54
2022-09-12T13:37:48.595Z,38.45
2022-09-12T13:40:36.618Z,38.16
2022-09-12T13:43:29.998Z,38.66
2022-09-12T13:45:56.845Z,38.50
2022-09-12T13:48:25.910Z,38.32
2022-09-12T13:50:59.947Z,38.78
2022-09-12T13:53:34.525Z,38.66
2022-09-12T13:56:01.834Z,35.84
2022-09-12T13:58:35.033Z,36.80
2022-09-12T14:01:14.532Z,36.56
2022-09-12T14:04:11.755Z,37.37
2022-09-12T14:06:50.822Z,39.57
2022-09-12T14:09:52.014Z,39.52
2022-09-12T14:12:33.960Z,41.01
2022-09-12T14:15:01.530Z,41.90
2022-09-12T14:17:33.536Z,41.69
2022-09-12T14:20:06.826Z,42.20
2022-09-12T14:22:36.292Z,41.78
2022-09-12T14:25:04.034Z,41.72
2022-09-12T14:27:45.639Z,38.94
2022-09-12T14:30:26.238Z,38.54
2022-09-12T14:33:11.339Z,38.66
2022-09-12T14:35:53.259Z,38.01
2022-09-12T14:38:31.909Z,36.79
2022-09-12T14:41:06.775Z,37.76
2022-09-12T14:43:36.436Z,38.41
2022-09-12T14:46:07.859Z,38.37
2022-09-12T14:48:47.630Z,38.60
2022-09-12T14:51:26.602Z,39.02
2022-09-12T14:53:53.695Z,39.90
2022-09-12T14:56:53.452Z,40.68
2022-09-12T14:59:37.955Z,39.46
2022-09-12T15:02:13.705Z,39.20
2022-09-12T15:04:42.565Z,38.19
2022-09-12T15:07:22.640Z,37.03
2022-09-12T15:09:49.703Z,37.00
2022-09-12T15:12:16.798Z,36.72
2022-09-12T15:14:43.550Z,36.56
2022-09-12T15:17:10.314Z,36.00
2022-09-12T15:19:37.063Z,35.43
2022-09-12T15:22:03.842Z,34.75
2022-09-12T15:24:30.586Z,33.48
2022-09-12T15:26:57.361Z,32.95
2022-09-12T15:29:24.143Z,31.97
2022-09-12T15:31:51.594Z,31.34
2022-09-12T15:34:19.976Z,31.01
2022-09-12T15:36:46.770Z,30.71
2022-09-12T15:39:13.553Z,30.05
2022-09-12T15:41:40.366Z,29.53
2022-09-12T15:44:11.711Z,28.97
2022-09-12T15:46:38.863Z,28.38
2022-09-12T15:49:06.945Z,28.32
2022-09-12T15:51:34.122Z,28.06
2022-09-12T15:54:04.204Z,27.81
2022-09-12T15:56:30.987Z,27.82
2022-09-12T15:58:59.642Z,27.56
2022-09-12T16:01:28.655Z,27.42
2022-09-12T16:03:55.717Z,27.05
2022-09-12T16:06:23.411Z,27.14
2022-09-12T16:08:50.231Z,26.95
2022-09-12T16:11:27.783Z,26.95
2022-09-12T16:13:56.788Z,26.80
2022-09-12T16:16:23.760Z,26.60
2022-09-12T16:18:50.679Z,26.47
2022-09-12T16:21:17.758Z,26.29
2022-09-12T16:23:46.035Z,25.95
2022-09-12T16:26:13.727Z,25.92
2022-09-12T16:28:40.961Z,26.01
2022-09-12T16:31:11.119Z,25.82
2022-09-12T16:33:39.303Z,25.71
2022-09-12T16:36:10.033Z,25.37
2022-09-12T16:38:49.023Z,25.25
2022-09-12T16:41:17.823Z,25.09
2022-09-12T16:43:45.629Z,25.07
2022-09-12T16:46:15.892Z,24.92
2022-09-12T16:48:52.413Z,24.80
2022-09-12T16:51:26.521Z,24.69
2022-09-12T16:53:54.961Z,24.56
2022-09-12T16:56:22.884Z,24.31
2022-09-12T16:58:50.466Z,24.17
2022-09-12T17:01:19.677Z,24.45
2022-09-12T17:03:47.135Z,24.16
2022-09-12T17:06:18.401Z,23.90
2022-09-12T17:08:49.818Z,23.71
2022-09-12T17:11:21.606Z,23.58
2022-09-12T17:14:10.082Z,23.55
2022-09-12T17:16:40.571Z,23.43
2022-09-12T17:19:08.414Z,23.33
2022-09-12T17:21:35.456Z,23.22
2022-09-12T17:24:03.267Z,22.99
2022-09-12T17:26:30.018Z,22.75
2022-09-12T17:28:56.811Z,22.56
2022-09-12T17:31:24.028Z,22.40
2022-09-12T17:33:50.835Z,22.18
2022-09-12T17:36:18.320Z,22.08
2022-09-12T17:38:46.507Z,21.95
2022-09-12T17:41:19.991Z,21.90
2022-09-12T17:43:58.040Z,21.85
2022-09-12T17:46:31.679Z,21.69
2022-09-12T17:49:00.210Z,21.57
2022-09-12T17:51:30.634Z,21.46
2022-09-12T17:54:11.723Z,21.45
2022-09-12T17:56:39.367Z,21.38
2022-09-12T17:59:08.676Z,21.30
2022-09-12T18:01:54.213Z,21.15
2022-09-12T18:04:21.138Z,21.13
2022-09-12T18:06:49.058Z,21.11
2022-09-12T18:09:22.617Z,20.98
2022-09-12T18:11:50.606Z,20.92
2022-09-12T18:14:18.336Z,20.83
2022-09-12T18:16:46.690Z,20.74
2022-09-12T18:19:14.107Z,20.68
2022-09-12T18:21:41.570Z,20.68
2022-09-12T18:24:10.565Z,20.58
2022-09-12T18:26:37.655Z,20.45
2022-09-12T18:29:04.455Z,20.30
2022-09-12T18:31:31.561Z,20.54
2022-09-12T18:34:02.542Z,20.53
2022-09-12T18:36:30.222Z,20.20
2022-09-12T18:38:58.933Z,20.03
2022-09-12T18:41:26.458Z,19.81
2022-09-12T18:43:58.882Z,19.75
2022-09-12T18:46:27.904Z,19.68
2022-09-12T18:48:58.968Z,19.63
2022-09-12T18:51:31.389Z,19.53
2022-09-12T18:54:01.442Z,19.49
2022-09-12T18:56:34.493Z,19.39
2022-09-12T18:59:03.594Z,19.38
2022-09-12T19:01:38.436Z,19.32
2022-09-12T19:04:07.605Z,19.25
2022-09-12T19:06:39.061Z,19.31
2022-09-12T19:09:08.932Z,19.16
2022-09-12T19:11:39.451Z,19.11
2022-09-12T19:14:07.641Z,18.98
2022-09-12T19:16:35.018Z,18.89
2022-09-12T19:19:02.635Z,18.79
2022-09-12T19:21:31.275Z,18.96
2022-09-12T19:24:01.837Z,18.91
2022-09-12T19:26:29.000Z,18.95
2022-09-12T19:28:56.189Z,18.93
2022-09-12T19:31:23.413Z,18.76
2022-09-12T19:33:52.249Z,18.81
2022-09-12T19:36:43.811Z,18.76
2022-09-12T19:39:09.179Z,18.76
2022-09-12T19:41:36.508Z,18.76
2022-09-12T19:44:04.854Z,18.74
2022-09-12T19:46:31.934Z,18.76
2022-09-12T19:48:58.822Z,18.76
2022-09-12T19:51:25.875Z,18.79
2022-09-12T19:53:53.343Z,18.61
2022-09-12T19:56:20.715Z,18.66
2022-09-12T19:58:53.534Z,18.62
2022-09-12T20:01:27.936Z,18.48
2022-09-12T20:03:56.293Z,18.43
2022-09-12T20:06:23.066Z,18.38
2022-09-12T20:08:49.940Z,18.37
2022-09-12T20:11:20.711Z,18.31
2022-09-12T20:13:47.865Z,18.32
2022-09-12T20:16:21.974Z,18.34
2022-09-12T20:18:58.449Z,18.16
2022-09-12T20:21:31.381Z,18.13
2022-09-12T20:24:07.708Z,18.16
2022-09-12T20:26:34.750Z,18.12
2022-09-12T20:29:01.863Z,18.08
2022-09-12T20:31:30.081Z,17.99
2022-09-12T20:33:57.811Z,17.89
2022-09-12T20:36:24.746Z,17.84
2022-09-12T20:38:56.718Z,17.75
2022-09-12T20:41:25.515Z,17.65
2022-09-12T20:43:54.268Z,17.55
2022-09-12T20:46:22.694Z,17.47
2022-09-12T20:48:51.132Z,17.40
2022-09-12T20:51:19.655Z,17.35
2022-09-12T20:53:47.312Z,17.15
2022-09-12T20:56:14.913Z,17.14
2022-09-12T20:58:44.018Z,17.21
2022-09-12T21:01:13.153Z,17.17
2022-09-12T21:03:41.965Z,17.11
2022-09-12T21:06:10.621Z,17.12
2022-09-12T21:08:37.896Z,17.04
2022-09-12T21:11:05.650Z,17.07
2022-09-12T21:13:32.617Z,17.01
2022-09-12T21:16:07.944Z,17.05
2022-09-12T21:18:36.027Z,17.07
2022-09-12T21:21:04.041Z,17.08
2022-09-12T21:23:31.423Z,17.10
2022-09-12T21:26:00.266Z,17.05
2022-09-12T21:28:27.554Z,17.03
2022-09-12T21:30:54.660Z,17.09
2022-09-12T21:33:21.947Z,17.03
2022-09-12T21:35:49.787Z,16.97
2022-09-12T21:38:18.433Z,16.95
2022-09-12T21:40:46.230Z,16.84
2022-09-12T21:43:13.763Z,16.87
2022-09-12T21:45:40.737Z,16.82
2022-09-12T21:48:07.833Z,16.80
2022-09-12T21:50:34.594Z,16.78
2022-09-12T21:53:01.371Z,16.71
2022-09-12T21:55:28.171Z,16.57
2022-09-12T21:57:55.499Z,16.60
2022-09-12T22:00:23.067Z,16.52
2022-09-12T22:02:49.865Z,16.52
2022-09-12T22:05:17.249Z,16.48
2022-09-12T22:07:44.588Z,16.43
2022-09-12T22:10:11.535Z,16.31
2022-09-12T22:12:39.955Z,16.33
2022-09-12T22:15:36.291Z,16.27
2022-09-12T22:17:57.369Z,16.22
2022-09-12T22:20:24.109Z,16.13
2022-09-12T22:23:09.363Z,16.07
2022-09-12T22:25:36.198Z,16.00
2022-09-12T22:28:02.976Z,16.03
2022-09-12T22:30:29.815Z,15.90
2022-09-12T22:32:56.603Z,15.92
2022-09-12T22:35:23.357Z,15.91
2022-09-12T22:37:50.107Z,15.94
2022-09-12T22:40:17.065Z,15.83
2022-09-12T22:42:43.971Z,15.87
2022-09-12T22:45:11.542Z,15.76
2022-09-12T22:47:38.306Z,15.79
2022-09-12T22:50:05.873Z,15.74
2022-09-12T22:52:32.631Z,15.74
2022-09-12T22:54:59.374Z,15.71
2022-09-12T22:57:26.179Z,15.51
2022-09-12T22:59:52.946Z,15.57
2022-09-12T23:02:19.759Z,15.53
2022-09-12T23:04:46.942Z,15.50
2022-09-12T23:07:13.743Z,15.37
2022-09-12T23:09:40.548Z,15.34
2022-09-12T23:12:07.411Z,15.31
2022-09-12T23:14:34.259Z,15.23
2022-09-12T23:17:01.045Z,15.14
2022-09-12T23:19:27.778Z,15.15
2022-09-12T23:21:54.540Z,15.13
2022-09-12T23:24:21.309Z,15.12
2022-09-12T23:26:48.062Z,15.07
2022-09-12T23:29:15.586Z,15.07
2022-09-12T23:31:42.376Z,15.04
2022-09-12T23:34:10.298Z,15.02
2022-09-12T23:36:37.181Z,15.03
2022-09-12T23:39:04.567Z,15.04
2022-09-12T23:41:31.702Z,15.01
2022-09-12T23:43:58.819Z,14.96
2022-09-12T23:46:25.598Z,14.90
2022-09-12T23:48:55.621Z,14.86
2022-09-12T23:51:22.430Z,14.89
2022-09-12T23:53:50.407Z,14.87
2022-09-12T23:56:17.185Z,14.66
2022-09-12T23:58:43.948Z,14.44
